Time;durP1;ratioP1;P1;durP2;ratioP2;P2;SDS_P1;SDS_P2;PMS_P1;PMS_P2;Temp;Humidity;BMP_temperature;BMP_pressure;BME280_temperature;BME280_humidity;BME280_pressure;Samples;Min_cycle;Max_cycle;Signal;HPM_P1;HPM_P2
2023/08/03 00:02:23;;;;;;;5.15;2.72;;;;;;;26.62;60.63;98986.31;5101027;28;20463;-84
2023/08/03 00:04:48;;;;;;;7.47;3.90;;;;;;;26.70;60.40;99001.03;5101159;28;20040;-84
2023/08/03 00:07:14;;;;;;;13.63;4.60;;;;;;;26.85;60.37;99023.94;5107175;28;20019;-84
2023/08/03 00:09:40;;;;;;;6.47;3.53;;;;;;;26.88;60.65;99033.59;5111959;28;20052;-84
2023/08/03 00:12:06;;;;;;;5.97;3.35;;;;;;;26.52;60.93;98981.91;5111413;27;20024;-84
2023/08/03 00:14:32;;;;;;;5.63;3.05;;;;;;;26.74;61.35;99032.19;5111438;28;20039;-83
2023/08/03 00:16:57;;;;;;;5.22;3.10;;;;;;;26.33;62.35;99018.75;5111425;28;20035;-84
2023/08/03 00:19:22;;;;;;;4.97;3.53;;;;;;;26.36;61.99;99001.41;5111850;28;20032;-83
2023/08/03 00:21:48;;;;;;;6.30;3.67;;;;;;;26.66;61.96;99032.03;5110740;28;20125;-83
2023/08/03 00:24:13;;;;;;;4.40;3.08;;;;;;;26.33;62.33;99009.81;5111661;28;20094;-83
2023/08/03 00:26:39;;;;;;;5.47;4.05;;;;;;;26.28;63.33;99012.91;5110748;28;20019;-83
2023/08/03 00:29:04;;;;;;;7.40;3.50;;;;;;;26.04;64.06;99021.41;5111141;28;20107;-83
2023/08/03 00:31:30;;;;;;;7.97;3.67;;;;;;;26.13;64.42;99031.38;5111234;28;20019;-83
2023/08/03 00:33:55;;;;;;;4.85;3.00;;;;;;;26.23;63.92;99007.94;5111634;28;20035;-83
2023/08/03 00:36:20;;;;;;;4.50;3.15;;;;;;;26.39;64.13;99047.94;5111577;28;20031;-83
2023/08/03 00:38:46;;;;;;;3.95;3.35;;;;;;;26.20;63.92;98986.59;5111857;28;20108;-83
2023/08/03 00:41:11;;;;;;;4.97;3.80;;;;;;;26.56;63.28;99019.34;5110639;28;20023;-83
2023/08/03 00:43:37;;;;;;;4.53;3.28;;;;;;;26.52;63.61;99030.59;5108496;28;20043;-84
2023/08/03 00:46:02;;;;;;;6.60;3.97;;;;;;;26.68;62.96;99040.84;5111424;28;20035;-83
2023/08/03 00:48:28;;;;;;;4.38;2.55;;;;;;;26.43;63.41;99006.09;5110862;28;20031;-83
2023/08/03 00:50:53;;;;;;;7.30;3.22;;;;;;;26.54;63.03;99007.81;5110986;28;20036;-83
2023/08/03 00:53:19;;;;;;;4.72;3.35;;;;;;;26.67;62.56;99018.38;5110859;28;20039;-83
2023/08/03 00:55:44;;;;;;;6.88;2.97;;;;;;;26.55;62.97;99014.06;5110774;28;20489;-83
2023/08/03 00:58:10;;;;;;;5.68;3.53;;;;;;;26.52;63.00;99009.78;5110836;28;20042;-83
2023/08/03 01:00:36;;;;;;;4.47;2.88;;;;;;;26.60;63.03;99038.84;5110683;28;20020;-83
2023/08/03 01:03:02;;;;;;;4.20;2.92;;;;;;;26.62;62.98;99020.63;5109401;28;20146;-83
2023/08/03 01:05:27;;;;;;;6.95;4.50;;;;;;;26.49;63.21;99012.78;5110518;28;20525;-83
2023/08/03 01:08:10;;;;;;;8.25;3.72;;;;;;;26.59;62.86;99032.59;5110965;28;20433;-83
2023/08/03 01:10:43;;;;;;;5.80;3.40;;;;;;;26.27;62.79;98994.97;5109115;28;20036;-83
2023/08/03 01:13:30;;;;;;;5.88;4.22;;;;;;;25.89;62.92;98962.31;5109266;28;20312;-83
2023/08/03 01:16:01;;;;;;;8.45;5.28;;;;;;;25.66;63.65;98950.06;5088700;28;20100;-83
2023/08/03 01:18:27;;;;;;;6.85;4.35;;;;;;;25.69;63.90;98953.31;5088928;28;20063;-84
2023/08/03 01:20:56;;;;;;;7.20;3.30;;;;;;;25.58;63.66;98937.25;5088633;28;20048;-83
2023/08/03 01:23:25;;;;;;;3.65;2.75;;;;;;;26.26;63.13;99064.41;5089994;28;20096;-84
2023/08/03 01:25:58;;;;;;;4.45;3.00;;;;;;;25.96;63.07;98992.34;5103865;28;20028;-84
2023/08/03 01:28:39;;;;;;;5.65;3.45;;;;;;;25.74;62.85;98971.81;5110466;28;20497;-84
2023/08/03 01:31:05;;;;;;;5.20;2.67;;;;;;;25.73;62.82;98964.69;5109304;28;20463;-83
2023/08/03 01:33:35;;;;;;;7.53;3.42;;;;;;;25.72;62.82;98971.94;5126382;27;20030;-83
2023/08/03 01:36:02;;;;;;;5.78;4.00;;;;;;;25.67;62.32;98967.94;5108569;28;20096;-83
2023/08/03 01:38:27;;;;;;;4.95;3.83;;;;;;;25.74;62.51;98996.13;5112990;28;20033;-83
2023/08/03 01:40:53;;;;;;;5.45;3.08;;;;;;;25.95;62.19;99014.09;5114396;28;20032;-83
2023/08/03 01:43:19;;;;;;;7.15;3.42;;;;;;;25.72;61.94;98974.66;5114062;28;20029;-83
2023/08/03 01:45:45;;;;;;;5.13;3.70;;;;;;;25.77;61.97;98990.44;5114768;28;20023;-82
2023/08/03 01:48:10;;;;;;;5.15;3.05;;;;;;;26.00;61.94;99038.91;5114764;28;20028;-82
2023/08/03 01:50:36;;;;;;;5.47;2.25;;;;;;;25.98;62.19;99027.34;5114873;28;20032;-82
2023/08/03 01:53:01;;;;;;;4.60;3.00;;;;;;;25.78;62.11;99000.28;5114903;28;20035;-82
2023/08/03 01:55:26;;;;;;;6.38;3.33;;;;;;;26.25;61.87;99065.41;5114527;28;20115;-82
2023/08/03 01:57:52;;;;;;;6.38;3.83;;;;;;;25.93;62.09;99038.53;5113799;28;20039;-83
2023/08/03 02:00:17;;;;;;;7.57;4.45;;;;;;;26.20;61.96;99066.84;5114261;28;20059;-82
2023/08/03 02:02:43;;;;;;;4.32;3.03;;;;;;;26.13;61.87;99065.66;5114071;28;20028;-82
2023/08/03 02:05:08;;;;;;;5.95;2.70;;;;;;;25.84;62.30;99029.44;5114318;28;20024;-82
2023/08/03 02:07:44;;;;;;;7.00;4.03;;;;;;;25.96;61.94;99046.38;5113657;28;20042;-82
2023/08/03 02:10:11;;;;;;;4.63;2.70;;;;;;;26.03;61.97;99069.19;5112840;28;20462;-82
2023/08/03 02:12:37;;;;;;;5.75;4.35;;;;;;;26.01;61.49;99075.72;5113858;28;20028;-82
2023/08/03 02:15:04;;;;;;;3.90;2.72;;;;;;;25.91;61.42;99079.19;5114150;28;20030;-82
2023/08/03 02:17:29;;;;;;;5.68;2.80;;;;;;;25.84;61.25;99080.75;5112039;28;20070;-83
2023/08/03 02:19:55;;;;;;;5.70;3.58;;;;;;;25.86;61.39;99083.31;5112580;28;20043;-83
2023/08/03 02:22:20;;;;;;;5.90;3.25;;;;;;;25.82;61.39;99071.06;5113968;28;20489;-83
2023/08/03 02:24:46;;;;;;;3.88;3.00;;;;;;;25.62;61.86;99057.47;5114257;28;20028;-83
2023/08/03 02:27:11;;;;;;;4.55;3.55;;;;;;;25.76;61.91;99077.84;5112619;28;20095;-82
2023/08/03 02:29:37;;;;;;;6.32;4.28;;;;;;;25.68;61.77;99047.97;5113045;28;20031;-82
2023/08/03 02:32:02;;;;;;;5.53;3.40;;;;;;;25.71;61.64;99066.63;5113369;28;20538;-82
2023/08/03 02:34:28;;;;;;;3.92;3.05;;;;;;;25.66;62.07;99083.22;5113593;28;20565;-82
2023/08/03 02:36:53;;;;;;;4.47;3.17;;;;;;;25.61;62.04;99076.50;5113550;28;20031;-82
2023/08/03 02:39:18;;;;;;;5.65;3.38;;;;;;;25.66;62.11;99087.78;5113474;28;20059;-82
2023/08/03 02:41:44;;;;;;;7.22;3.47;;;;;;;25.65;62.09;99091.47;5113018;27;20513;-82
2023/08/03 02:44:09;;;;;;;11.43;4.32;;;;;;;25.37;61.76;99047.97;5113143;28;20027;-82
2023/08/03 02:46:35;;;;;;;6.07;2.60;;;;;;;25.51;61.68;99060.25;5113614;28;20024;-82
2023/08/03 02:49:01;;;;;;;4.85;2.58;;;;;;;25.45;61.59;99068.91;5110450;28;20032;-82
2023/08/03 02:51:27;;;;;;;3.80;2.63;;;;;;;25.58;61.94;99083.03;5103000;28;20020;-82
2023/08/03 02:53:52;;;;;;;4.63;2.75;;;;;;;25.42;61.96;99059.19;5094826;28;20040;-82
2023/08/03 02:56:18;;;;;;;3.78;2.45;;;;;;;25.53;61.81;99080.75;5097349;28;20032;-82
2023/08/03 02:58:43;;;;;;;5.82;3.47;;;;;;;25.40;61.38;99063.03;5112950;28;20030;-81
2023/08/03 03:01:09;;;;;;;10.73;4.05;;;;;;;25.45;61.25;99077.84;5112306;28;20030;-81
2023/08/03 03:03:34;;;;;;;7.03;3.05;;;;;;;25.42;61.24;99077.25;5113253;28;20023;-82
2023/08/03 03:05:59;;;;;;;4.20;2.25;;;;;;;25.50;61.65;99099.91;5113227;28;20451;-82
2023/08/03 03:08:25;;;;;;;5.00;2.60;;;;;;;25.32;62.26;99080.75;5113071;27;20126;-81
2023/08/03 03:10:50;;;;;;;4.28;2.70;;;;;;;25.37;62.36;99093.84;5112767;28;20031;-82
2023/08/03 03:13:16;;;;;;;5.78;3.80;;;;;;;25.60;62.19;99113.47;5111297;28;20172;-81
2023/08/03 03:15:41;;;;;;;4.30;2.72;;;;;;;25.58;61.99;99110.03;5112727;28;20027;-82
2023/08/03 03:18:07;;;;;;;4.47;2.78;;;;;;;25.43;61.83;99093.31;5112332;28;20038;-84
2023/08/03 03:20:32;;;;;;;4.03;3.05;;;;;;;25.49;62.13;99111.69;5111697;28;20537;-82
2023/08/03 03:22:57;;;;;;;4.40;3.25;;;;;;;25.39;62.33;99113.47;5111133;28;20028;-83
2023/08/03 03:25:23;;;;;;;6.15;2.85;;;;;;;25.29;62.73;99096.38;5112716;28;20031;-82
2023/08/03 03:27:48;;;;;;;5.13;3.53;;;;;;;25.38;62.94;99101.81;5111502;28;20024;-84
2023/08/03 03:30:16;;;;;;;3.72;2.60;;;;;;;25.32;63.05;99106.91;5111380;28;20137;-83
2023/08/03 03:32:42;;;;;;;3.75;3.05;;;;;;;25.23;62.98;99078.81;5111572;28;20405;-84
2023/08/03 03:35:08;;;;;;;7.35;4.30;;;;;;;25.53;62.94;99120.38;5110253;28;20043;-83
2023/08/03 03:37:33;;;;;;;8.48;3.28;;;;;;;25.40;63.09;99101.69;5111376;28;20418;-84
2023/08/03 03:39:59;;;;;;;9.80;3.95;;;;;;;25.34;63.06;99099.50;5111353;28;20015;-84
2023/08/03 03:42:24;;;;;;;3.92;2.20;;;;;;;25.31;63.19;99079.03;5110974;28;20031;-82
2023/08/03 03:44:49;;;;;;;5.65;4.35;;;;;;;25.42;63.31;99101.56;5111646;28;20043;-81
2023/08/03 03:47:15;;;;;;;4.38;2.70;;;;;;;25.32;63.24;99093.41;5109544;28;20209;-83
2023/08/03 03:49:42;;;;;;;5.75;3.38;;;;;;;25.56;63.31;99130.91;5111528;28;20023;-80
2023/08/03 03:52:07;;;;;;;5.35;3.72;;;;;;;25.52;63.08;99121.38;5111536;28;20031;-84
2023/08/03 03:54:33;;;;;;;4.72;3.85;;;;;;;25.50;63.09;99107.13;5110449;28;20047;-84
2023/08/03 03:57:00;;;;;;;3.75;2.65;;;;;;;25.62;62.96;99114.16;5109470;28;20080;-83
2023/08/03 03:59:26;;;;;;;6.40;3.65;;;;;;;25.65;62.61;99108.50;5111520;28;20031;-83
2023/08/03 04:01:51;;;;;;;4.88;3.33;;;;;;;25.63;62.70;99105.09;5110587;28;20039;-83
2023/08/03 04:04:17;;;;;;;5.72;3.78;;;;;;;25.67;62.56;99100.28;5111570;28;20462;-83
2023/08/03 04:06:43;;;;;;;7.85;3.05;;;;;;;25.88;62.61;99130.81;5112077;28;20473;-83
2023/08/03 04:09:09;;;;;;;3.25;2.40;;;;;;;25.99;62.62;99143.41;5109345;28;20036;-83
2023/08/03 04:11:34;;;;;;;6.93;3.88;;;;;;;26.01;62.59;99133.34;5111124;28;20466;-84
2023/08/03 04:14:00;;;;;;;11.57;4.20;;;;;;;26.07;62.02;99127.38;5110911;28;20485;-83
2023/08/03 04:16:25;;;;;;;6.28;4.05;;;;;;;26.12;61.67;99121.56;5111058;28;20024;-84
2023/08/03 04:18:51;;;;;;;8.18;3.55;;;;;;;26.16;61.49;99117.59;5111795;28;20028;-83
2023/08/03 04:21:16;;;;;;;3.78;2.40;;;;;;;26.46;60.88;99140.16;5109162;28;20429;-84
2023/08/03 04:23:41;;;;;;;7.07;2.92;;;;;;;26.54;60.67;99126.81;5110059;28;20067;-83
2023/08/03 04:26:07;;;;;;;7.65;3.88;;;;;;;26.50;60.12;99109.13;5109697;28;20035;-83
2023/08/03 04:28:33;;;;;;;6.20;4.78;;;;;;;26.50;59.95;99122.66;5110994;28;20114;-83
2023/08/03 04:30:58;;;;;;;6.82;4.07;;;;;;;26.43;59.82;99097.16;5110272;28;20034;-83
2023/08/03 04:33:24;;;;;;;5.80;3.78;;;;;;;26.67;59.12;99123.88;5109528;28;20565;-84
2023/08/03 04:35:49;;;;;;;5.90;3.85;;;;;;;26.85;58.42;99133.97;5099413;28;20130;-84
2023/08/03 04:38:15;;;;;;;20.20;3.80;;;;;;;26.86;57.72;99131.13;5092015;28;20036;-83
2023/08/03 04:40:40;;;;;;;6.13;3.65;;;;;;;26.87;57.58;99124.75;5110954;28;20031;-84
2023/08/03 04:43:06;;;;;;;7.60;4.53;;;;;;;26.74;57.57;99103.38;5110556;28;20081;-84
2023/08/03 04:45:31;;;;;;;5.18;3.03;;;;;;;26.88;57.33;99114.75;5110770;27;20122;-83
2023/08/03 04:47:57;;;;;;;6.32;4.00;;;;;;;27.29;57.41;99142.56;5110216;28;20397;-84
2023/08/03 04:50:22;;;;;;;4.47;3.10;;;;;;;27.30;57.04;99128.03;5111347;28;20028;-83
2023/08/03 04:52:48;;;;;;;5.60;3.63;;;;;;;27.21;56.28;99140.56;5109350;28;20535;-83
2023/08/03 04:55:13;;;;;;;6.35;3.00;;;;;;;27.30;56.37;99133.44;5111118;28;20043;-83
2023/08/03 04:57:42;;;;;;;5.15;3.03;;;;;;;27.43;55.34;99130.44;5110179;28;20050;-84
2023/08/03 05:00:08;;;;;;;4.88;3.25;;;;;;;27.09;55.93;99092.97;5109188;28;20040;-83
2023/08/03 05:02:34;;;;;;;6.03;3.00;;;;;;;27.38;56.71;99155.25;5111048;28;20439;-83
2023/08/03 05:04:59;;;;;;;6.00;3.42;;;;;;;27.45;56.58;99152.81;5106101;28;20065;-81
2023/08/03 05:07:25;;;;;;;6.60;4.53;;;;;;;27.69;56.26;99177.59;5106130;28;20421;-81
2023/08/03 05:09:50;;;;;;;11.57;3.22;;;;;;;27.82;55.29;99177.28;5107867;28;20466;-82
2023/08/03 05:12:15;;;;;;;5.10;3.42;;;;;;;27.83;54.99;99178.13;5104689;28;20035;-81
2023/08/03 05:14:41;;;;;;;5.75;4.10;;;;;;;28.06;54.76;99178.69;5106796;28;20457;-81
2023/08/03 05:17:06;;;;;;;13.57;2.88;;;;;;;28.30;54.72;99178.16;5104013;28;20038;-85
2023/08/03 05:19:32;;;;;;;6.57;4.18;;;;;;;28.17;54.48;99150.53;5103811;28;20138;-87
2023/08/03 05:21:58;;;;;;;5.05;3.50;;;;;;;28.30;54.74;99169.16;5108143;28;20031;-88
2023/08/03 05:24:24;;;;;;;5.65;3.47;;;;;;;28.29;53.47;99164.75;5108109;28;20489;-88
2023/08/03 05:26:49;;;;;;;4.28;3.25;;;;;;;28.42;52.73;99156.25;5107733;28;20085;-87
2023/08/03 05:29:15;;;;;;;6.07;2.92;;;;;;;28.55;51.62;99159.50;5109201;28;20110;-85
2023/08/03 05:31:41;;;;;;;6.07;3.45;;;;;;;28.68;51.38;99151.00;5106131;28;20040;-88
2023/08/03 05:34:06;;;;;;;5.00;2.65;;;;;;;28.69;51.62;99134.56;5103166;28;20429;-89
2023/08/03 05:36:32;;;;;;;4.35;2.88;;;;;;;28.85;50.79;99139.31;5112567;27;20543;-87
2023/08/03 05:38:57;;;;;;;5.88;3.33;;;;;;;28.98;50.64;99168.81;5109454;28;20035;-88
2023/08/03 05:41:25;;;;;;;4.80;2.85;;;;;;;28.63;50.62;99153.34;5105936;28;20039;-89
2023/08/03 05:43:53;;;;;;;6.10;3.00;;;;;;;28.77;51.00;99143.81;5099499;28;20063;-90
2023/08/03 05:46:19;;;;;;;4.05;2.75;;;;;;;29.19;50.04;99181.22;5097733;28;20090;-90
2023/08/03 05:48:52;;;;;;;3.33;2.35;;;;;;;29.15;50.42;99196.97;5101945;28;20059;-89
2023/08/03 05:51:25;;;;;;;6.07;3.53;;;;;;;29.15;49.56;99177.09;5092310;28;20032;-90
2023/08/03 05:53:51;;;;;;;3.80;2.72;;;;;;;29.28;49.38;99148.56;5099135;28;20058;-90
2023/08/03 05:56:19;;;;;;;16.77;4.35;;;;;;;29.75;48.44;99141.09;5096565;28;20032;-88
2023/08/03 05:58:45;;;;;;;5.63;3.63;;;;;;;30.16;48.15;99165.84;5099365;28;20043;-88
2023/08/03 06:01:11;;;;;;;5.22;2.80;;;;;;;29.98;47.69;99134.16;5098263;28;20020;-88
2023/08/03 06:03:42;;;;;;;12.27;4.97;;;;;;;30.33;46.34;99153.19;5099646;28;20055;-88
2023/08/03 06:06:11;;;;;;;7.95;4.07;;;;;;;30.07;47.04;99132.31;5101762;28;20493;-88
2023/08/03 06:08:41;;;;;;;5.60;2.90;;;;;;;30.37;46.37;99119.22;5105912;28;20097;-88
2023/08/03 06:11:09;;;;;;;4.32;2.72;;;;;;;30.96;45.71;99135.53;5107951;28;20022;-88
2023/08/03 06:13:35;;;;;;;6.05;2.95;;;;;;;31.50;44.81;99175.13;5095699;28;20046;-87
2023/08/03 06:16:12;;;;;;;5.57;4.28;;;;;;;31.77;42.98;99163.00;5093582;28;20034;-88
2023/08/03 06:18:52;;;;;;;5.63;2.58;;;;;;;32.25;42.47;99195.84;5103683;28;20043;-88
2023/08/03 06:21:19;;;;;;;7.68;2.70;;;;;;;32.07;42.32;99125.09;5105348;28;20385;-88
2023/08/03 06:23:47;;;;;;;5.03;2.67;;;;;;;32.10;41.82;99119.31;5105340;28;20137;-87
2023/08/03 06:26:14;;;;;;;3.67;2.17;;;;;;;32.10;41.34;99127.50;5109342;28;20051;-88
2023/08/03 06:28:49;;;;;;;5.95;3.80;;;;;;;32.39;40.38;99101.47;5102171;28;20032;-88
2023/08/03 06:31:20;;;;;;;4.30;2.35;;;;;;;33.01;40.69;99194.34;5106555;28;20027;-87
2023/08/03 06:33:47;;;;;;;4.70;2.65;;;;;;;32.13;41.50;99122.56;5111280;28;20061;-88
2023/08/03 06:36:19;;;;;;;3.15;1.88;;;;;;;32.23;40.91;99135.16;5107134;28;20023;-87
2023/08/03 06:38:45;;;;;;;6.65;3.15;;;;;;;32.24;41.26;99134.97;5105859;28;20103;-88
2023/08/03 06:41:11;;;;;;;5.50;2.47;;;;;;;32.09;41.04;99132.13;5111041;27;20024;-87
2023/08/03 06:43:37;;;;;;;4.95;2.90;;;;;;;32.07;42.35;99116.91;5097964;28;20038;-87
2023/08/03 06:46:04;;;;;;;5.30;3.22;;;;;;;32.62;40.98;99094.16;5092663;28;20031;-86
2023/08/03 06:48:29;;;;;;;4.97;3.05;;;;;;;32.92;39.54;99123.53;5093236;28;20107;-87
2023/08/03 06:50:55;;;;;;;4.97;2.15;;;;;;;33.57;39.39;99159.59;5092783;28;20119;-87
2023/08/03 06:53:21;;;;;;;5.55;3.70;;;;;;;33.45;39.08;99140.91;5092943;28;20071;-84
2023/08/03 06:55:48;;;;;;;5.47;3.92;;;;;;;33.57;38.58;99156.84;5110190;28;20069;-83
2023/08/03 06:58:20;;;;;;;7.45;3.75;;;;;;;33.58;38.23;99139.44;5096143;28;20100;-86
2023/08/03 07:00:46;;;;;;;4.97;3.33;;;;;;;33.72;37.37;99157.78;5098735;28;20089;-82
2023/08/03 07:03:12;;;;;;;3.53;2.50;;;;;;;33.97;36.72;99154.78;5100750;28;20092;-83
2023/08/03 07:05:38;;;;;;;3.78;2.72;;;;;;;34.09;37.75;99161.50;5101107;28;20453;-83
2023/08/03 07:08:04;;;;;;;5.53;3.35;;;;;;;34.20;36.73;99128.19;5127671;27;20035;-84
2023/08/03 07:10:29;;;;;;;3.92;2.50;;;;;;;34.37;35.58;99139.81;5098241;28;20579;-86
2023/08/03 07:12:55;;;;;;;4.22;2.92;;;;;;;34.46;35.59;99156.13;5096630;28;20046;-85
2023/08/03 07:15:21;;;;;;;4.65;3.75;;;;;;;34.33;36.35;99171.34;5096560;28;20028;-85
2023/08/03 07:17:47;;;;;;;7.25;4.30;;;;;;;34.26;36.48;99145.75;5095903;28;20142;-86
2023/08/03 07:20:13;;;;;;;3.80;2.58;;;;;;;34.85;35.62;99160.41;5096397;28;20379;-85
2023/08/03 07:22:39;;;;;;;4.13;2.53;;;;;;;34.78;35.51;99138.44;5096906;28;20097;-82
2023/08/03 07:25:05;;;;;;;5.88;3.10;;;;;;;35.26;35.22;99171.63;5100647;28;20024;-85
2023/08/03 07:27:31;;;;;;;4.50;2.78;;;;;;;34.73;35.10;99138.16;5096028;28;20113;-83
2023/08/03 07:29:57;;;;;;;4.57;2.83;;;;;;;35.07;35.10;99155.81;5094528;28;20038;-84
2023/08/03 07:32:23;;;;;;;6.95;3.70;;;;;;;35.19;35.05;99165.22;5094561;28;20386;-83
2023/08/03 07:34:48;;;;;;;4.40;2.80;;;;;;;35.66;34.67;99168.41;5094186;28;20096;-83
2023/08/03 07:37:14;;;;;;;4.32;2.88;;;;;;;36.32;33.92;99164.47;5095267;28;20070;-82
2023/08/03 07:39:39;;;;;;;27.58;3.33;;;;;;;36.66;33.63;99147.09;5096525;28;20383;-83
2023/08/03 07:42:06;;;;;;;4.55;3.00;;;;;;;36.12;34.57;99145.97;5096925;27;20031;-84
2023/08/03 07:44:31;;;;;;;3.67;2.50;;;;;;;36.14;33.00;99132.88;5097080;28;20032;-82
2023/08/03 07:46:57;;;;;;;6.43;3.10;;;;;;;36.36;32.99;99161.13;5098008;28;20496;-83
2023/08/03 07:49:22;;;;;;;6.30;3.58;;;;;;;36.35;33.19;99147.59;5096507;28;20035;-82
2023/08/03 07:51:48;;;;;;;4.93;2.50;;;;;;;36.33;33.38;99161.53;5095720;28;20032;-82
2023/08/03 07:54:15;;;;;;;4.50;2.85;;;;;;;36.32;33.53;99175.47;5099540;28;20040;-82
2023/08/03 07:56:41;;;;;;;4.93;3.38;;;;;;;35.98;33.29;99139.56;5097365;28;20239;-82
2023/08/03 07:59:06;;;;;;;4.07;2.28;;;;;;;35.98;34.85;99155.19;5088449;28;20036;-82
2023/08/03 08:01:32;;;;;;;4.97;2.47;;;;;;;36.14;34.43;99165.81;5097205;28;20042;-82
2023/08/03 08:03:57;;;;;;;5.78;3.47;;;;;;;36.48;33.68;99155.88;5097850;28;20488;-82
2023/08/03 08:06:23;;;;;;;8.85;3.40;;;;;;;36.62;32.38;99144.97;5097668;28;20039;-82
2023/08/03 08:52:31;;;;;;;4.28;2.92;;;;;;;37.31;33.75;99123.78;5111207;28;20049;-80
2023/08/03 08:55:14;;;;;;;5.80;3.33;;;;;;;37.51;32.62;99123.78;5110006;28;20052;-82
2023/08/03 08:57:39;;;;;;;6.15;3.05;;;;;;;37.96;34.87;99135.84;5105281;28;20027;-81
2023/08/03 09:00:06;;;;;;;5.00;3.13;;;;;;;37.89;31.83;99109.41;5093820;28;20095;-81
2023/08/03 09:02:32;;;;;;;5.93;3.38;;;;;;;37.53;32.86;99119.78;5104158;28;20031;-82
2023/08/03 09:05:10;;;;;;;3.78;2.45;;;;;;;37.74;33.43;99126.13;5096772;28;20024;-81
2023/08/03 09:07:36;;;;;;;4.88;3.40;;;;;;;37.18;33.63;99117.19;5096465;28;20043;-81
2023/08/03 09:10:02;;;;;;;4.78;2.88;;;;;;;36.99;34.07;99109.78;5093148;28;20142;-82
2023/08/03 09:12:28;;;;;;;4.65;3.13;;;;;;;37.38;34.18;99125.50;5100185;28;20069;-83
2023/08/03 09:14:58;;;;;;;4.82;2.72;;;;;;;36.92;34.00;99085.91;5100023;28;20039;-84
2023/08/03 09:17:25;;;;;;;4.38;2.72;;;;;;;37.38;33.99;99099.91;5097559;27;20505;-84
2023/08/03 09:19:54;;;;;;;7.25;3.33;;;;;;;37.39;33.18;99091.44;5098479;27;20514;-82
2023/08/03 09:22:25;;;;;;;4.43;3.33;;;;;;;37.26;35.35;99097.81;5096890;28;20436;-82
2023/08/03 09:25:07;;;;;;;13.45;4.82;;;;;;;37.73;33.26;99077.69;5102457;28;20039;-82
2023/08/03 09:27:34;;;;;;;4.43;2.53;;;;;;;38.10;31.94;99097.28;5093827;28;20070;-81
2023/08/03 09:30:04;;;;;;;4.93;2.72;;;;;;;38.03;31.72;99093.69;5090653;28;20027;-83
2023/08/03 09:32:35;;;;;;;5.32;2.85;;;;;;;38.55;33.73;99094.56;5089984;28;20020;-84
2023/08/03 09:35:01;;;;;;;5.47;2.97;;;;;;;38.11;31.58;99098.94;5095686;28;20032;-83
2023/08/03 09:37:35;;;;;;;7.15;3.72;;;;;;;38.17;31.69;99094.53;5090142;28;20036;-83
2023/08/03 09:40:04;;;;;;;6.87;2.70;;;;;;;38.39;31.45;99078.53;5095766;28;20224;-83
2023/08/03 09:42:33;;;;;;;6.20;3.10;;;;;;;38.58;31.40;99082.28;5099149;28;20285;-82
2023/08/03 09:45:02;;;;;;;5.97;3.90;;;;;;;38.37;31.11;99088.94;5095995;28;20028;-83
2023/08/03 09:47:29;;;;;;;4.25;2.67;;;;;;;37.94;32.43;99085.69;5089876;28;20040;-82
2023/08/03 09:49:56;;;;;;;4.82;3.58;;;;;;;38.20;31.56;99092.16;5095339;28;20051;-82
2023/08/03 09:52:25;;;;;;;6.22;4.65;;;;;;;38.27;30.41;99043.44;5096186;28;20032;-82
2023/08/03 09:55:19;;;;;;;5.35;3.28;;;;;;;38.61;33.70;99073.56;5098302;28;20039;-82
2023/08/03 09:58:09;;;;;;;2.90;2.50;;;;;;;38.68;32.82;99069.75;5091894;28;20032;-83
2023/08/03 10:00:37;;;;;;;3.95;2.92;;;;;;;38.94;30.08;99065.09;5102140;28;20032;-82
2023/08/03 10:03:12;;;;;;;6.95;3.22;;;;;;;38.54;30.19;99001.13;5112796;27;20036;-82
2023/08/03 10:05:50;;;;;;;5.05;2.63;;;;;;;38.75;30.85;99052.31;5099056;28;20107;-82
2023/08/03 10:08:40;;;;;;;4.85;3.20;;;;;;;38.50;29.69;99055.84;5111918;28;20039;-82
2023/08/03 10:11:10;;;;;;;4.70;3.38;;;;;;;37.87;30.45;99049.06;5114696;28;20111;-82
2023/08/03 10:13:41;;;;;;;5.43;3.38;;;;;;;37.80;31.00;99026.22;5098291;27;20036;-82
2023/08/03 10:16:07;;;;;;;4.18;2.63;;;;;;;37.87;30.98;99062.00;5104959;28;20409;-83
2023/08/03 10:18:37;;;;;;;4.28;3.08;;;;;;;37.49;31.71;99036.00;5101988;28;20036;-82
2023/08/03 10:21:03;;;;;;;5.72;3.92;;;;;;;38.03;32.47;99033.97;5102776;28;20110;-83
2023/08/03 10:23:29;;;;;;;5.90;3.83;;;;;;;38.01;31.40;98996.75;5095299;28;20107;-82
2023/08/03 10:25:57;;;;;;;10.07;3.67;;;;;;;38.40;30.47;99041.69;5093537;28;20040;-83
2023/08/03 10:28:25;;;;;;;8.02;4.72;;;;;;;38.45;30.13;99031.72;5094576;28;20031;-82
2023/08/03 10:31:18;;;;;;;8.68;4.20;;;;;;;38.09;31.03;99021.25;5097825;28;20517;-82
2023/08/03 10:33:47;;;;;;;;;;;;;;;38.13;31.19;99028.84;5099667;28;20042;-82
2023/08/03 10:36:30;;;;;;;3.60;2.78;;;;;;;38.06;30.72;99027.19;5105587;28;19919;-80
2023/08/03 10:38:59;;;;;;;5.13;3.17;;;;;;;38.29;30.33;99022.03;5098961;28;20051;-82
2023/08/03 10:41:49;;;;;;;5.18;3.60;;;;;;;38.26;30.81;98988.59;5094769;28;20098;-82
2023/08/03 10:44:14;;;;;;;4.35;2.72;;;;;;;38.20;30.60;99011.50;5095379;28;20032;-82
2023/08/03 10:46:51;;;;;;;5.20;3.50;;;;;;;38.36;30.86;99016.50;5104351;28;20035;-82
2023/08/03 10:49:19;;;;;;;4.60;2.72;;;;;;;38.25;30.06;99015.28;5110142;28;20118;-82
2023/08/03 10:51:52;;;;;;;3.60;2.35;;;;;;;38.42;30.18;99001.84;5105325;28;20027;-82
2023/08/03 10:54:20;;;;;;;4.13;2.90;;;;;;;38.19;30.12;98974.00;5100515;28;20039;-84
2023/08/03 10:57:05;;;;;;;3.75;2.55;;;;;;;38.65;30.35;98992.19;5096910;28;20024;-84
2023/08/03 10:59:41;;;;;;;4.80;2.67;;;;;;;38.57;29.51;98981.41;5103852;28;20020;-83
2023/08/03 11:02:22;;;;;;;5.20;3.45;;;;;;;38.11;29.59;98995.22;5102927;28;20027;-84
2023/08/03 11:04:51;;;;;;;4.43;2.60;;;;;;;38.01;30.53;98978.31;5098819;28;20027;-84
2023/08/03 11:07:21;;;;;;;4.72;2.80;;;;;;;38.13;30.24;98989.50;5102785;28;20038;-82
2023/08/03 11:09:48;;;;;;;3.72;2.38;;;;;;;38.44;30.41;98955.63;5097295;28;20114;-86
2023/08/03 11:12:16;;;;;;;4.75;2.33;;;;;;;38.19;29.47;98958.34;5101509;28;21857;-84
2023/08/03 11:14:47;;;;;;;8.30;4.38;;;;;;;37.89;29.65;98945.13;5098618;28;20877;-85
2023/08/03 11:17:16;;;;;;;4.53;2.95;;;;;;;38.25;29.92;98965.72;5100537;28;20039;-86
2023/08/03 11:19:43;;;;;;;4.88;3.40;;;;;;;38.56;29.80;98968.69;5099539;28;20028;-84
2023/08/03 11:22:08;;;;;;;3.95;2.33;;;;;;;38.26;29.96;98947.28;5100644;28;20024;-85
2023/08/03 11:24:34;;;;;;;4.05;2.63;;;;;;;38.51;30.04;98955.59;5105133;28;20047;-86
2023/08/03 11:27:02;;;;;;;4.03;2.72;;;;;;;38.10;29.38;98949.47;5098212;28;20081;-84
2023/08/03 11:29:28;;;;;;;3.13;2.05;;;;;;;38.39;29.17;98960.13;5097417;28;20435;-84
2023/08/03 11:31:53;;;;;;;4.63;2.55;;;;;;;38.41;28.96;98936.81;5101192;28;20030;-84
2023/08/03 11:34:20;;;;;;;2.88;2.05;;;;;;;38.53;29.31;98941.59;5101904;28;20032;-83
2023/08/03 11:36:51;;;;;;;4.97;2.70;;;;;;;38.32;28.64;98910.59;5104640;28;20031;-84
2023/08/03 11:39:17;;;;;;;3.58;2.17;;;;;;;38.66;28.18;98938.78;5103006;28;20392;-86
2023/08/03 11:41:44;;;;;;;3.95;2.75;;;;;;;38.41;28.58;98950.56;5102072;28;20023;-84
2023/08/03 11:44:09;;;;;;;4.53;2.13;;;;;;;38.33;28.25;98926.91;5097578;28;20124;-84
2023/08/03 11:46:35;;;;;;;4.72;2.55;;;;;;;38.41;28.56;98934.06;5100569;28;20090;-82
2023/08/03 11:49:02;;;;;;;4.20;2.20;;;;;;;38.25;27.84;98902.41;5108350;28;20042;-83
2023/08/03 11:51:38;;;;;;;5.28;2.90;;;;;;;38.74;27.80;98934.91;5096682;28;20232;-81
2023/08/03 11:54:04;;;;;;;2.85;2.10;;;;;;;38.61;27.69;98917.38;5097592;28;20040;-82
2023/08/03 11:56:30;;;;;;;4.15;2.00;;;;;;;38.80;28.57;98893.50;5093427;28;20028;-83
2023/08/03 11:59:01;;;;;;;3.00;2.20;;;;;;;39.06;26.80;98912.78;5101198;28;20390;-82
2023/08/03 12:01:27;;;;;;;4.35;2.33;;;;;;;38.79;27.46;98883.56;5100641;28;20020;-85
2023/08/03 12:04:07;;;;;;;3.80;2.50;;;;;;;38.83;28.13;98912.34;5098604;28;20031;-85
2023/08/03 12:07:02;;;;;;;3.60;2.10;;;;;;;38.64;26.73;98919.72;5099184;28;20497;-84
2023/08/03 12:09:35;;;;;;;3.97;2.17;;;;;;;38.78;26.84;98922.38;5047570;28;20621;-84
2023/08/03 12:12:02;;;;;;;5.53;3.33;;;;;;;38.74;27.31;98908.16;5046595;28;20486;-83
2023/08/03 12:14:27;;;;;;;5.18;2.85;;;;;;;38.96;26.63;98907.75;5048012;28;20174;-85
2023/08/03 12:16:53;;;;;;;3.83;2.63;;;;;;;38.62;27.07;98904.44;5047149;28;20033;-84
2023/08/03 12:19:19;;;;;;;3.00;2.25;;;;;;;38.91;26.85;98915.88;5031988;28;20036;-84
2023/08/03 12:21:45;;;;;;;3.25;1.75;;;;;;;39.00;26.41;98911.75;5039293;28;20037;-83